Viitasaari, Finland

2:22 PM EEST on October 25, 2014 (GMT +0300)
Jyvaskyla | Change Station
CLOSE
Current Station
Airport
Location: Jyvaskyla,
Elevation: 476 ft
Nearby Weather Stations

Elev 476 ft 62.40 °N, 25.68 °E | Updated 32 minutes ago

Overcast
Overcast
36 °F
Feels Like 27 °F
N
14
Wind Variable Wind from South

Today
High -- | Low -- °F
--% Chance of Precip.
Yesterday
High -- | Low -- °F
Precip. -- in
8:32 AM 5:28 PM
Waxing Crescent, 3% visible
Pressure 30.06 in
Visibility 4.3 miles
Clouds Overcast 400 ft
Windchill 27 °F
Dew Point 36 °F
Humidity 100%
Rainfall 0.00 in
Snow Depth Not available.
UV 0 out of 12
Pollen Not available.
Air Quality Not available.
Flu Activity Not available.
METAR EFJY 251050Z AUTO 17012KT 7000 OVC004 02/02 Q1018

More Conditions Fewer Conditions

Pressure 30.06 in
Visibility 4.3 miles
Clouds Overcast 400 ft
Windchill 27 °F
Dew Point 36 °F
Humidity 100%
Rainfall 0.00 in
Snow Depth Not available.
UV 0 out of 12
Pollen Not available.
Air Quality Not available.
Flu Activity Not available.
METAR EFJY 251050Z AUTO 17012KT 7000 OVC004 02/02 Q1018

More Conditions Fewer Conditions

10-Day Weather Forecast

Almanac

Astronomy

Oct. 25, 2014 Rise Set
Actual Time 8:32 AM EEST 5:28 PM EEST
Civil Twilight 7:43 AM EEST 6:16 PM EEST
Nautical Twilight 6:49 AM EEST 7:10 PM EEST
Astronomical Twilight 5:56 AM EEST 8:03 PM EEST
Moon 10:15 AM EEST 6:09 PM EEST
Length of Visible Light 10h 33m
Length of Day
8h 56m
Tomorrow will be 6m 8s shorter.
Waxing Crescent, 3% of the Moon is Illuminated
Today
Waxing Crescent
Oct 30
First Quarter
Nov 6
Full
Nov 14
Last Quarter
Nov 22
New

Yesterday's Extremes

Country Highs Country Lows

Community

WunderPhotos

Upload Photos

1,764,810 photos uploaded!

Nearby

Snow Depth

Not available.

Earthquake Activity

City Distance Mag. Time & Date
No recent earthquake activity has been reported nearby.
Minimum magnitude displayed is 2.5.

Coastal Water Temperatures

Place Temperature
No Stations Reporting

Nearby Weather Stations